EAG5501 CYYR-BGTL
Flight info
| Callsign | EAG5501 |
|---|---|
| Flight time | 3h 17m |
| Altitude | 41000 |
| Route | YDP/N0482F400 DCT OMIVO/M085F410 DCT MRTNN |
| Aircraft | A359/H-SDE2E3GHIJ3J4J5LM1ORWXY/LB1D1 |
Departure
| Time | 2026-04-26 14:33 |
|---|---|
| Airport | Goose Bay Airport (CYYR) |
Arrival
| Time | 2026-04-26 17:51 |
|---|---|
| Airport | Pituffik Space Base (BGTL) |
| Time | Latitude | Longitude | Altitude | Speed | Heading |
|---|---|---|---|---|---|
| 2026-04-26 14:28 | 53.31448 | -60.40982 | 164 ft | 0 kts | 189° |
| 2026-04-26 14:31 | 53.31442 | -60.40976 | 164 ft | 2 kts | 152° |
| 2026-04-26 14:31 | 53.31446 | -60.40949 | 164 ft | 3 kts | 58° |
| 2026-04-26 14:32 | 53.31505 | -60.40873 | 164 ft | 20 kts | 41° |
| 2026-04-26 14:32 | 53.31522 | -60.40639 | 163 ft | 21 kts | 77° |
| 2026-04-26 14:32 | 53.31620 | -60.40460 | 162 ft | 21 kts | 15° |
| 2026-04-26 14:32 | 53.31717 | -60.40578 | 162 ft | 19 kts | 309° |
| 2026-04-26 14:33 | 53.31750 | -60.40638 | 163 ft | 13 kts | 313° |
| 2026-04-26 14:33 | 53.32045 | -60.41163 | 164 ft | 111 kts | 313° |
| 2026-04-26 14:33 | 53.32756 | -60.42456 | 381 ft | 178 kts | 316° |
| 2026-04-26 14:33 | 53.33640 | -60.44044 | 1413 ft | 197 kts | 317° |
| 2026-04-26 14:34 | 53.34656 | -60.45831 | 2210 ft | 222 kts | 316° |
| 2026-04-26 14:34 | 53.35735 | -60.47753 | 2897 ft | 231 kts | 317° |
| 2026-04-26 14:34 | 53.36856 | -60.49762 | 3647 ft | 238 kts | 318° |
| 2026-04-26 14:34 | 53.37998 | -60.51818 | 4477 ft | 243 kts | 319° |
| 2026-04-26 14:35 | 53.39155 | -60.53893 | 5284 ft | 250 kts | 319° |
| 2026-04-26 14:35 | 53.40350 | -60.56037 | 6200 ft | 253 kts | 318° |
| 2026-04-26 14:35 | 53.41554 | -60.58206 | 7116 ft | 256 kts | 317° |
| 2026-04-26 14:35 | 53.42774 | -60.60413 | 8030 ft | 259 kts | 317° |
| 2026-04-26 14:36 | 53.44008 | -60.62641 | 8932 ft | 263 kts | 317° |
| 2026-04-26 14:36 | 53.45265 | -60.64916 | 9887 ft | 267 kts | 318° |
| 2026-04-26 14:36 | 53.46554 | -60.67243 | 10571 ft | 281 kts | 318° |
| 2026-04-26 14:36 | 53.47944 | -60.69743 | 10916 ft | 304 kts | 317° |
| 2026-04-26 14:37 | 53.49421 | -60.72409 | 11268 ft | 326 kts | 317° |
| 2026-04-26 14:37 | 53.51000 | -60.75273 | 11833 ft | 339 kts | 317° |
| 2026-04-26 14:37 | 53.52616 | -60.78217 | 12628 ft | 345 kts | 317° |
| 2026-04-26 14:37 | 53.54260 | -60.81214 | 13452 ft | 350 kts | 317° |
| 2026-04-26 14:38 | 53.55902 | -60.84207 | 14246 ft | 354 kts | 317° |
| 2026-04-26 14:38 | 53.57583 | -60.87277 | 14984 ft | 358 kts | 317° |
| 2026-04-26 14:38 | 53.59291 | -60.90393 | 15660 ft | 364 kts | 317° |
| 2026-04-26 14:38 | 53.60433 | -60.92478 | 16103 ft | 368 kts | 317° |
| 2026-04-26 14:39 | 53.62781 | -60.96774 | 17034 ft | 375 kts | 317° |
| 2026-04-26 14:39 | 53.64588 | -60.99967 | 17717 ft | 378 kts | 321° |
| 2026-04-26 14:39 | 53.66607 | -61.02692 | 18420 ft | 377 kts | 332° |
| 2026-04-26 14:39 | 53.68928 | -61.04714 | 19055 ft | 375 kts | 343° |
| 2026-04-26 14:40 | 53.71436 | -61.05911 | 19705 ft | 375 kts | 352° |
| 2026-04-26 14:40 | 53.74024 | -61.06661 | 20370 ft | 378 kts | 355° |
| 2026-04-26 14:40 | 53.76662 | -61.07242 | 21012 ft | 382 kts | 357° |
| 2026-04-26 14:40 | 53.79286 | -61.07742 | 21672 ft | 387 kts | 357° |
| 2026-04-26 14:41 | 53.81981 | -61.08240 | 22327 ft | 391 kts | 357° |
| 2026-04-26 14:41 | 53.84705 | -61.08757 | 22990 ft | 394 kts | 357° |
| 2026-04-26 14:41 | 53.87444 | -61.09299 | 23680 ft | 398 kts | 357° |
| 2026-04-26 14:41 | 53.90210 | -61.09864 | 24228 ft | 403 kts | 357° |
| 2026-04-26 14:42 | 53.93007 | -61.10450 | 24794 ft | 406 kts | 357° |
| 2026-04-26 14:42 | 53.95832 | -61.11048 | 25371 ft | 409 kts | 357° |
| 2026-04-26 14:42 | 53.98669 | -61.11651 | 25952 ft | 412 kts | 357° |
| 2026-04-26 14:42 | 54.01498 | -61.12251 | 26491 ft | 416 kts | 357° |
| 2026-04-26 14:43 | 54.04380 | -61.12863 | 27036 ft | 419 kts | 357° |
| 2026-04-26 14:43 | 54.07287 | -61.13481 | 27594 ft | 422 kts | 357° |
| 2026-04-26 14:43 | 54.10217 | -61.14106 | 28131 ft | 425 kts | 357° |
| 2026-04-26 14:43 | 54.13165 | -61.14735 | 28697 ft | 428 kts | 357° |
| 2026-04-26 14:44 | 54.16125 | -61.15368 | 29368 ft | 427 kts | 356° |
| 2026-04-26 14:44 | 54.19044 | -61.15994 | 29919 ft | 430 kts | 357° |
| 2026-04-26 14:44 | 54.22030 | -61.16633 | 30378 ft | 433 kts | 357° |
| 2026-04-26 14:44 | 54.25042 | -61.17277 | 30767 ft | 437 kts | 357° |
| 2026-04-26 14:45 | 54.28079 | -61.17928 | 31112 ft | 440 kts | 357° |
| 2026-04-26 14:45 | 54.30097 | -61.18361 | 31311 ft | 443 kts | 356° |
| 2026-04-26 14:45 | 54.34214 | -61.19246 | 31742 ft | 448 kts | 356° |
| 2026-04-26 14:45 | 54.37316 | -61.19916 | 32120 ft | 449 kts | 356° |
| 2026-04-26 14:46 | 54.40388 | -61.20580 | 32462 ft | 452 kts | 356° |
| 2026-04-26 14:46 | 54.43516 | -61.21257 | 32811 ft | 454 kts | 356° |
| 2026-04-26 14:46 | 54.46641 | -61.21934 | 33269 ft | 452 kts | 356° |
| 2026-04-26 14:46 | 54.49762 | -61.22614 | 33800 ft | 450 kts | 356° |
| 2026-04-26 14:47 | 54.52868 | -61.23292 | 34259 ft | 449 kts | 357° |
| 2026-04-26 14:47 | 54.55975 | -61.23969 | 34630 ft | 448 kts | 357° |
| 2026-04-26 14:47 | 54.59073 | -61.24644 | 34934 ft | 449 kts | 357° |
| 2026-04-26 14:47 | 54.62180 | -61.25322 | 35232 ft | 450 kts | 357° |
| 2026-04-26 14:48 | 54.65259 | -61.25994 | 35532 ft | 450 kts | 357° |
| 2026-04-26 14:48 | 54.68374 | -61.26675 | 35830 ft | 451 kts | 357° |
| 2026-04-26 14:48 | 54.71493 | -61.27359 | 36131 ft | 451 kts | 357° |
| 2026-04-26 14:48 | 54.74607 | -61.28042 | 36406 ft | 451 kts | 356° |
| 2026-04-26 14:49 | 54.77718 | -61.28728 | 36772 ft | 449 kts | 356° |
| 2026-04-26 14:49 | 54.80819 | -61.29412 | 37084 ft | 449 kts | 356° |
| 2026-04-26 14:49 | 54.83892 | -61.30090 | 37335 ft | 450 kts | 357° |
| 2026-04-26 14:49 | 54.87001 | -61.30776 | 37602 ft | 450 kts | 357° |
| 2026-04-26 14:50 | 54.90108 | -61.31463 | 37869 ft | 450 kts | 357° |
| 2026-04-26 14:50 | 54.93227 | -61.32154 | 38133 ft | 450 kts | 357° |
| 2026-04-26 14:50 | 54.96343 | -61.32846 | 38407 ft | 450 kts | 357° |
| 2026-04-26 14:50 | 54.99410 | -61.33527 | 38663 ft | 450 kts | 357° |
| 2026-04-26 14:51 | 55.02514 | -61.34218 | 38905 ft | 450 kts | 357° |
| 2026-04-26 14:51 | 55.05636 | -61.34914 | 39111 ft | 450 kts | 356° |
| 2026-04-26 14:51 | 55.08741 | -61.35609 | 39403 ft | 447 kts | 356° |
| 2026-04-26 14:51 | 55.11824 | -61.36301 | 39604 ft | 447 kts | 356° |
| 2026-04-26 14:52 | 55.14877 | -61.36985 | 39716 ft | 449 kts | 356° |
| 2026-04-26 14:52 | 55.21102 | -61.38379 | 39935 ft | 452 kts | 355° |
| 2026-04-26 14:52 | 55.24224 | -61.39081 | 40093 ft | 452 kts | 355° |
| 2026-04-26 14:53 | 55.27344 | -61.39785 | 40241 ft | 452 kts | 355° |
| 2026-04-26 14:53 | 55.30483 | -61.40495 | 40373 ft | 453 kts | 355° |
| 2026-04-26 14:53 | 55.33613 | -61.41203 | 40517 ft | 454 kts | 355° |
| 2026-04-26 14:53 | 55.36712 | -61.41906 | 40644 ft | 454 kts | 355° |
| 2026-04-26 14:54 | 55.39857 | -61.42620 | 40779 ft | 455 kts | 355° |
| 2026-04-26 14:54 | 55.43005 | -61.43335 | 40908 ft | 455 kts | 355° |
| 2026-04-26 14:54 | 55.46156 | -61.44053 | 41035 ft | 456 kts | 355° |
| 2026-04-26 14:54 | 55.49271 | -61.44764 | 41150 ft | 456 kts | 355° |
| 2026-04-26 14:55 | 55.52432 | -61.45486 | 41272 ft | 457 kts | 355° |
| 2026-04-26 14:55 | 55.58756 | -61.46933 | 41314 ft | 458 kts | 355° |
| 2026-04-26 14:56 | 55.65083 | -61.48388 | 41304 ft | 458 kts | 354° |
| 2026-04-26 14:56 | 55.71379 | -61.49838 | 41312 ft | 458 kts | 354° |
| 2026-04-26 14:57 | 55.77708 | -61.51301 | 41314 ft | 458 kts | 354° |
| 2026-04-26 14:57 | 55.84042 | -61.52770 | 41315 ft | 458 kts | 354° |
| 2026-04-26 14:58 | 55.90362 | -61.54240 | 41316 ft | 458 kts | 354° |
| 2026-04-26 14:58 | 55.96699 | -61.55720 | 41319 ft | 458 kts | 354° |
| 2026-04-26 14:59 | 56.02979 | -61.57191 | 41318 ft | 458 kts | 354° |
| 2026-04-26 14:59 | 56.09317 | -61.58680 | 41310 ft | 461 kts | 354° |
| 2026-04-26 15:00 | 56.15715 | -61.60187 | 41319 ft | 466 kts | 354° |
| 2026-04-26 15:00 | 56.22188 | -61.61720 | 41321 ft | 470 kts | 354° |
| 2026-04-26 15:01 | 56.28657 | -61.63255 | 41320 ft | 473 kts | 354° |
| 2026-04-26 15:01 | 56.35192 | -61.64812 | 41322 ft | 473 kts | 353° |
| 2026-04-26 15:02 | 56.40627 | -61.66112 | 41322 ft | 473 kts | 353° |
| 2026-04-26 15:02 | 56.48214 | -61.67932 | 41321 ft | 472 kts | 353° |
| 2026-04-26 15:03 | 56.53586 | -61.69758 | 41322 ft | 474 kts | 345° |
| 2026-04-26 15:03 | 56.59782 | -61.73925 | 41320 ft | 475 kts | 339° |
| 2026-04-26 15:04 | 56.65906 | -61.78501 | 41327 ft | 476 kts | 338° |
| 2026-04-26 15:04 | 56.72025 | -61.83169 | 41324 ft | 475 kts | 338° |
| 2026-04-26 15:05 | 56.78093 | -61.87794 | 41336 ft | 475 kts | 338° |
| 2026-04-26 15:05 | 56.84193 | -61.92440 | 41335 ft | 475 kts | 338° |
| 2026-04-26 15:06 | 56.90302 | -61.97102 | 41336 ft | 475 kts | 338° |
| 2026-04-26 15:06 | 56.96414 | -62.01784 | 41337 ft | 476 kts | 338° |
| 2026-04-26 15:07 | 57.05555 | -62.08817 | 41344 ft | 476 kts | 338° |
| 2026-04-26 15:07 | 57.11664 | -62.13540 | 41344 ft | 475 kts | 338° |
| 2026-04-26 15:08 | 57.17731 | -62.18247 | 41354 ft | 475 kts | 338° |
| 2026-04-26 15:08 | 57.23840 | -62.23002 | 41343 ft | 475 kts | 337° |
| 2026-04-26 15:09 | 57.29938 | -62.27767 | 41363 ft | 475 kts | 337° |
| 2026-04-26 15:09 | 57.35999 | -62.32520 | 41362 ft | 476 kts | 337° |
| 2026-04-26 15:10 | 57.41064 | -62.36504 | 41363 ft | 475 kts | 337° |
| 2026-04-26 15:10 | 57.48167 | -62.42114 | 41373 ft | 473 kts | 337° |
| 2026-04-26 15:11 | 57.54232 | -62.46923 | 41371 ft | 473 kts | 337° |
| 2026-04-26 15:11 | 57.60260 | -62.51718 | 41372 ft | 474 kts | 337° |
| 2026-04-26 15:12 | 57.66331 | -62.56566 | 41377 ft | 475 kts | 336° |
| 2026-04-26 15:12 | 57.72405 | -62.61434 | 41370 ft | 475 kts | 336° |
| 2026-04-26 15:13 | 57.78493 | -62.66331 | 41384 ft | 475 kts | 336° |
| 2026-04-26 15:13 | 57.84534 | -62.71208 | 41379 ft | 474 kts | 336° |
| 2026-04-26 15:14 | 57.90605 | -62.76128 | 41361 ft | 474 kts | 336° |
| 2026-04-26 15:14 | 57.96620 | -62.81019 | 41363 ft | 474 kts | 336° |
| 2026-04-26 15:15 | 58.02691 | -62.85975 | 41346 ft | 475 kts | 336° |
| 2026-04-26 15:15 | 58.08763 | -62.90951 | 41347 ft | 475 kts | 336° |
| 2026-04-26 15:16 | 58.14796 | -62.95912 | 41354 ft | 475 kts | 336° |
| 2026-04-26 15:16 | 58.20858 | -63.00915 | 41357 ft | 474 kts | 335° |
| 2026-04-26 15:17 | 58.25884 | -63.05078 | 41349 ft | 473 kts | 335° |
| 2026-04-26 15:17 | 58.32943 | -63.10947 | 41374 ft | 474 kts | 335° |
| 2026-04-26 15:18 | 58.38955 | -63.15966 | 41370 ft | 474 kts | 335° |
| 2026-04-26 15:18 | 58.45014 | -63.21043 | 41389 ft | 474 kts | 335° |
| 2026-04-26 15:19 | 58.51021 | -63.26095 | 41389 ft | 474 kts | 335° |
| 2026-04-26 15:19 | 58.57063 | -63.31196 | 41393 ft | 474 kts | 335° |
| 2026-04-26 15:20 | 58.63102 | -63.36313 | 41388 ft | 472 kts | 335° |
| 2026-04-26 15:20 | 58.69071 | -63.41390 | 41393 ft | 472 kts | 335° |
| 2026-04-26 15:21 | 58.75109 | -63.46546 | 41395 ft | 472 kts | 335° |
| 2026-04-26 15:21 | 58.81115 | -63.51695 | 41396 ft | 472 kts | 335° |
| 2026-04-26 15:22 | 58.87087 | -63.56832 | 41402 ft | 472 kts | 335° |
| 2026-04-26 15:22 | 58.93096 | -63.62022 | 41403 ft | 472 kts | 334° |
| 2026-04-26 15:23 | 58.99101 | -63.67228 | 41396 ft | 472 kts | 334° |
| 2026-04-26 15:23 | 59.05071 | -63.72423 | 41409 ft | 473 kts | 334° |
| 2026-04-26 15:24 | 59.11095 | -63.77686 | 41410 ft | 473 kts | 334° |
| 2026-04-26 15:24 | 59.17074 | -63.82930 | 41410 ft | 473 kts | 334° |
| 2026-04-26 15:25 | 59.22107 | -63.87360 | 41408 ft | 473 kts | 334° |
| 2026-04-26 15:25 | 59.29095 | -63.93535 | 41410 ft | 473 kts | 334° |
| 2026-04-26 15:26 | 59.35057 | -63.98823 | 41409 ft | 472 kts | 333° |
| 2026-04-26 15:26 | 59.41041 | -64.04152 | 41410 ft | 471 kts | 333° |
| 2026-04-26 15:27 | 59.47022 | -64.09500 | 41414 ft | 472 kts | 333° |
| 2026-04-26 15:27 | 59.52969 | -64.14840 | 41407 ft | 471 kts | 333° |
| 2026-04-26 15:28 | 59.58941 | -64.20224 | 41405 ft | 472 kts | 333° |
| 2026-04-26 15:28 | 59.64918 | -64.25630 | 41420 ft | 472 kts | 333° |
| 2026-04-26 15:29 | 59.70860 | -64.31026 | 41418 ft | 472 kts | 333° |
| 2026-04-26 15:30 | 59.82788 | -64.41925 | 41423 ft | 471 kts | 333° |
| 2026-04-26 15:30 | 59.88748 | -64.47404 | 41417 ft | 471 kts | 333° |
| 2026-04-26 15:31 | 59.97632 | -64.55609 | 41422 ft | 471 kts | 333° |
| 2026-04-26 15:32 | 60.05557 | -64.62971 | 41416 ft | 471 kts | 332° |
| 2026-04-26 15:32 | 60.12472 | -64.69424 | 41428 ft | 470 kts | 332° |
| 2026-04-26 15:33 | 60.18399 | -64.74982 | 41422 ft | 469 kts | 332° |
| 2026-04-26 15:33 | 60.24325 | -64.80561 | 41424 ft | 469 kts | 332° |
| 2026-04-26 15:34 | 60.30201 | -64.86115 | 41428 ft | 469 kts | 332° |
| 2026-04-26 15:34 | 60.36112 | -64.91725 | 41427 ft | 469 kts | 332° |
| 2026-04-26 15:35 | 60.42021 | -64.97354 | 41430 ft | 469 kts | 332° |
| 2026-04-26 15:35 | 60.47900 | -65.02977 | 41473 ft | 470 kts | 331° |
| 2026-04-26 15:36 | 60.53812 | -65.08653 | 41432 ft | 468 kts | 331° |
| 2026-04-26 15:36 | 60.59701 | -65.14333 | 41438 ft | 467 kts | 331° |
| 2026-04-26 15:37 | 60.65541 | -65.19989 | 41438 ft | 467 kts | 331° |
| 2026-04-26 15:37 | 60.71418 | -65.25703 | 41438 ft | 467 kts | 331° |
| 2026-04-26 15:38 | 60.77287 | -65.31432 | 41446 ft | 467 kts | 331° |
| 2026-04-26 15:38 | 60.83151 | -65.37180 | 41446 ft | 468 kts | 330° |
| 2026-04-26 15:39 | 60.88998 | -65.42934 | 41466 ft | 468 kts | 330° |
| 2026-04-26 15:39 | 60.93877 | -65.47752 | 41449 ft | 466 kts | 330° |
| 2026-04-26 15:40 | 61.00705 | -65.54523 | 41452 ft | 465 kts | 330° |
| 2026-04-26 15:40 | 61.06508 | -65.60305 | 41452 ft | 465 kts | 330° |
| 2026-04-26 15:41 | 61.12331 | -65.66132 | 41453 ft | 465 kts | 330° |
| 2026-04-26 15:41 | 61.18168 | -65.71995 | 41453 ft | 466 kts | 330° |
| 2026-04-26 15:42 | 61.24006 | -65.77885 | 41454 ft | 466 kts | 330° |
| 2026-04-26 15:42 | 61.29817 | -65.83770 | 41455 ft | 466 kts | 330° |
| 2026-04-26 15:43 | 61.35626 | -65.89676 | 41461 ft | 464 kts | 330° |
| 2026-04-26 15:44 | 61.44294 | -65.98538 | 41463 ft | 463 kts | 329° |
| 2026-04-26 15:44 | 61.52987 | -66.07482 | 41457 ft | 463 kts | 329° |
| 2026-04-26 15:45 | 61.61654 | -66.16455 | 41467 ft | 464 kts | 329° |
| 2026-04-26 15:46 | 61.70351 | -66.25515 | 41473 ft | 463 kts | 329° |
| 2026-04-26 15:46 | 61.74175 | -66.29515 | 41468 ft | 462 kts | 329° |
| 2026-04-26 15:47 | 61.84730 | -66.40620 | 41465 ft | 461 kts | 329° |
| 2026-04-26 15:48 | 61.90488 | -66.46714 | 41461 ft | 461 kts | 329° |
| 2026-04-26 15:48 | 61.96208 | -66.52795 | 41464 ft | 462 kts | 329° |
| 2026-04-26 15:49 | 62.01962 | -66.58935 | 41466 ft | 462 kts | 329° |
| 2026-04-26 15:49 | 62.07712 | -66.65098 | 41513 ft | 462 kts | 328° |
| 2026-04-26 15:50 | 62.13403 | -66.71222 | 41462 ft | 460 kts | 328° |
| 2026-04-26 15:50 | 62.19122 | -66.77403 | 41463 ft | 459 kts | 328° |
| 2026-04-26 15:51 | 62.23860 | -66.82547 | 41462 ft | 458 kts | 328° |
| 2026-04-26 15:51 | 62.30490 | -66.89775 | 41464 ft | 458 kts | 328° |
| 2026-04-26 15:52 | 62.35227 | -66.94960 | 41467 ft | 458 kts | 328° |
| 2026-04-26 15:52 | 62.40923 | -67.01218 | 41472 ft | 459 kts | 328° |
| 2026-04-26 15:53 | 62.46581 | -67.07463 | 41466 ft | 458 kts | 328° |
| 2026-04-26 15:53 | 62.52288 | -67.13786 | 41475 ft | 457 kts | 328° |
| 2026-04-26 15:54 | 62.57896 | -67.20027 | 41474 ft | 456 kts | 328° |
| 2026-04-26 15:54 | 62.63541 | -67.26338 | 41470 ft | 455 kts | 328° |
| 2026-04-26 15:55 | 62.69188 | -67.32680 | 41478 ft | 456 kts | 328° |
| 2026-04-26 15:55 | 62.74813 | -67.39023 | 41480 ft | 457 kts | 328° |
| 2026-04-26 15:56 | 62.80465 | -67.45423 | 41495 ft | 457 kts | 327° |
| 2026-04-26 15:56 | 62.86075 | -67.51804 | 41493 ft | 457 kts | 327° |
| 2026-04-26 15:57 | 62.91713 | -67.58245 | 41496 ft | 457 kts | 327° |
| 2026-04-26 15:57 | 62.97356 | -67.64716 | 41509 ft | 457 kts | 327° |
| 2026-04-26 15:58 | 63.02992 | -67.71211 | 41507 ft | 457 kts | 327° |
| 2026-04-26 15:58 | 63.08640 | -67.77750 | 41521 ft | 458 kts | 327° |
| 2026-04-26 15:59 | 63.14290 | -67.84317 | 41523 ft | 458 kts | 327° |
| 2026-04-26 15:59 | 63.19898 | -67.90865 | 41521 ft | 458 kts | 327° |
| 2026-04-26 16:00 | 63.25539 | -67.97482 | 41523 ft | 458 kts | 327° |
| 2026-04-26 16:00 | 63.31174 | -68.04119 | 41534 ft | 456 kts | 327° |
| 2026-04-26 16:01 | 63.36747 | -68.10712 | 41532 ft | 455 kts | 327° |
| 2026-04-26 16:01 | 63.42335 | -68.17356 | 41533 ft | 455 kts | 327° |
| 2026-04-26 16:02 | 63.47923 | -68.24031 | 41538 ft | 455 kts | 327° |
| 2026-04-26 16:02 | 63.53463 | -68.30676 | 41538 ft | 455 kts | 327° |
| 2026-04-26 16:03 | 63.59058 | -68.37415 | 41546 ft | 455 kts | 327° |
| 2026-04-26 16:03 | 63.64605 | -68.44127 | 41541 ft | 455 kts | 326° |
| 2026-04-26 16:04 | 63.70184 | -68.50862 | 41569 ft | 456 kts | 328° |
| 2026-04-26 16:04 | 63.73180 | -68.53443 | 41541 ft | 464 kts | 339° |
| 2026-04-26 16:04 | 63.76398 | -68.54620 | 41549 ft | 472 kts | 349° |
| 2026-04-26 16:05 | 63.83003 | -68.55155 | 41537 ft | 477 kts | 353° |
| 2026-04-26 16:05 | 63.89654 | -68.55167 | 41542 ft | 478 kts | 353° |
| 2026-04-26 16:06 | 63.96269 | -68.55159 | 41550 ft | 478 kts | 353° |
| 2026-04-26 16:06 | 64.02938 | -68.55221 | 41567 ft | 478 kts | 353° |
| 2026-04-26 16:07 | 64.09597 | -68.55320 | 41561 ft | 477 kts | 352° |
| 2026-04-26 16:07 | 64.16242 | -68.55424 | 41562 ft | 477 kts | 352° |
| 2026-04-26 16:08 | 64.22846 | -68.55527 | 41560 ft | 476 kts | 352° |
| 2026-04-26 16:08 | 64.29451 | -68.55630 | 41571 ft | 477 kts | 352° |
| 2026-04-26 16:09 | 64.36096 | -68.55732 | 41567 ft | 476 kts | 352° |
| 2026-04-26 16:09 | 64.42733 | -68.55833 | 41567 ft | 475 kts | 352° |
| 2026-04-26 16:10 | 64.49344 | -68.55935 | 41567 ft | 474 kts | 352° |
| 2026-04-26 16:10 | 64.55914 | -68.56039 | 41568 ft | 474 kts | 352° |
| 2026-04-26 16:11 | 64.62526 | -68.56144 | 41565 ft | 474 kts | 352° |
| 2026-04-26 16:11 | 64.69093 | -68.56249 | 41578 ft | 475 kts | 352° |
| 2026-04-26 16:12 | 64.75721 | -68.56353 | 41571 ft | 474 kts | 353° |
| 2026-04-26 16:12 | 64.85600 | -68.56505 | 41570 ft | 472 kts | 353° |
| 2026-04-26 16:13 | 64.92152 | -68.56611 | 41565 ft | 472 kts | 353° |
| 2026-04-26 16:13 | 64.98719 | -68.56719 | 41574 ft | 472 kts | 353° |
| 2026-04-26 16:14 | 65.05303 | -68.56826 | 41602 ft | 472 kts | 353° |
| 2026-04-26 16:15 | 65.15075 | -68.56981 | 41568 ft | 469 kts | 353° |
| 2026-04-26 16:15 | 65.21613 | -68.57089 | 41568 ft | 469 kts | 353° |
| 2026-04-26 16:16 | 65.31371 | -68.57251 | 41566 ft | 469 kts | 353° |
| 2026-04-26 16:16 | 65.37911 | -68.57360 | 41622 ft | 469 kts | 353° |
| 2026-04-26 16:17 | 65.44420 | -68.57468 | 41560 ft | 468 kts | 353° |
| 2026-04-26 16:17 | 65.50937 | -68.57577 | 41558 ft | 468 kts | 353° |
| 2026-04-26 16:18 | 65.60735 | -68.57744 | 41548 ft | 469 kts | 353° |
| 2026-04-26 16:19 | 65.70499 | -68.57909 | 41549 ft | 469 kts | 353° |
| 2026-04-26 16:20 | 65.80329 | -68.58080 | 41538 ft | 472 kts | 353° |
| 2026-04-26 16:20 | 65.90188 | -68.58248 | 41541 ft | 472 kts | 353° |
| 2026-04-26 16:21 | 65.96728 | -68.58359 | 41529 ft | 472 kts | 353° |
| 2026-04-26 16:21 | 66.03308 | -68.58472 | 41549 ft | 472 kts | 353° |
| 2026-04-26 16:22 | 66.09869 | -68.58589 | 41541 ft | 473 kts | 353° |
| 2026-04-26 16:22 | 66.16455 | -68.58707 | 41532 ft | 473 kts | 353° |
| 2026-04-26 16:23 | 66.23058 | -68.58824 | 41524 ft | 473 kts | 353° |
| 2026-04-26 16:23 | 66.29606 | -68.58939 | 41526 ft | 473 kts | 353° |
| 2026-04-26 16:24 | 66.36217 | -68.59056 | 41515 ft | 474 kts | 353° |
| 2026-04-26 16:24 | 66.42814 | -68.59176 | 41523 ft | 474 kts | 353° |
| 2026-04-26 16:25 | 66.49391 | -68.59295 | 41514 ft | 474 kts | 353° |
| 2026-04-26 16:25 | 66.55997 | -68.59415 | 41512 ft | 474 kts | 353° |
| 2026-04-26 16:26 | 66.61488 | -68.59514 | 41512 ft | 474 kts | 353° |
| 2026-04-26 16:26 | 66.69166 | -68.59655 | 41518 ft | 474 kts | 353° |
| 2026-04-26 16:27 | 66.75782 | -68.59778 | 41554 ft | 474 kts | 353° |
| 2026-04-26 16:27 | 66.82335 | -68.59900 | 41513 ft | 474 kts | 353° |
| 2026-04-26 16:28 | 66.88943 | -68.60021 | 41513 ft | 473 kts | 353° |
| 2026-04-26 16:28 | 66.95556 | -68.60146 | 41503 ft | 473 kts | 353° |
| 2026-04-26 16:29 | 67.02108 | -68.60270 | 41503 ft | 474 kts | 353° |
| 2026-04-26 16:29 | 67.08709 | -68.60396 | 41511 ft | 473 kts | 353° |
| 2026-04-26 16:30 | 67.15270 | -68.60524 | 41512 ft | 473 kts | 353° |
| 2026-04-26 16:30 | 67.21862 | -68.60649 | 41504 ft | 473 kts | 353° |
| 2026-04-26 16:31 | 67.28459 | -68.60775 | 41502 ft | 474 kts | 353° |
| 2026-04-26 16:31 | 67.35059 | -68.60903 | 41507 ft | 474 kts | 353° |
| 2026-04-26 16:32 | 67.40558 | -68.61010 | 41516 ft | 474 kts | 353° |
| 2026-04-26 16:32 | 67.48239 | -68.61162 | 41531 ft | 474 kts | 354° |
| 2026-04-26 16:33 | 67.54806 | -68.61291 | 41524 ft | 474 kts | 354° |
| 2026-04-26 16:33 | 67.61409 | -68.61420 | 41528 ft | 474 kts | 354° |
| 2026-04-26 16:34 | 67.68008 | -68.61552 | 41527 ft | 474 kts | 354° |
| 2026-04-26 16:34 | 67.74609 | -68.61684 | 41527 ft | 474 kts | 354° |
| 2026-04-26 16:35 | 67.81205 | -68.61817 | 41573 ft | 474 kts | 354° |
| 2026-04-26 16:35 | 67.87776 | -68.61949 | 41524 ft | 474 kts | 354° |
| 2026-04-26 16:36 | 67.94389 | -68.62082 | 41530 ft | 475 kts | 354° |
| 2026-04-26 16:36 | 68.01003 | -68.62193 | 41523 ft | 475 kts | 354° |
| 2026-04-26 16:37 | 68.07617 | -68.62285 | 41515 ft | 475 kts | 354° |
| 2026-04-26 16:37 | 68.13113 | -68.62346 | 41501 ft | 475 kts | 354° |
| 2026-04-26 16:38 | 68.20810 | -68.62562 | 41530 ft | 475 kts | 354° |
| 2026-04-26 16:38 | 68.27436 | -68.62758 | 41527 ft | 475 kts | 354° |
| 2026-04-26 16:39 | 68.34069 | -68.62916 | 41518 ft | 475 kts | 354° |
| 2026-04-26 16:39 | 68.40664 | -68.63054 | 41517 ft | 476 kts | 354° |
| 2026-04-26 16:40 | 68.47258 | -68.63193 | 41517 ft | 476 kts | 354° |
| 2026-04-26 16:40 | 68.53883 | -68.63335 | 41533 ft | 476 kts | 355° |
| 2026-04-26 16:41 | 68.59395 | -68.63454 | 41503 ft | 476 kts | 355° |
| 2026-04-26 16:41 | 68.66040 | -68.63598 | 41516 ft | 477 kts | 355° |
| 2026-04-26 16:42 | 68.72683 | -68.63741 | 41506 ft | 477 kts | 355° |
| 2026-04-26 16:42 | 68.79333 | -68.63885 | 41510 ft | 477 kts | 355° |
| 2026-04-26 16:43 | 68.85923 | -68.64033 | 41501 ft | 477 kts | 355° |
| 2026-04-26 16:43 | 68.92565 | -68.64185 | 41496 ft | 478 kts | 355° |
| 2026-04-26 16:44 | 68.99219 | -68.64332 | 41489 ft | 478 kts | 355° |
| 2026-04-26 16:44 | 69.05829 | -68.64478 | 41480 ft | 478 kts | 355° |
| 2026-04-26 16:45 | 69.12487 | -68.64631 | 41489 ft | 478 kts | 355° |
| 2026-04-26 16:45 | 69.19137 | -68.64782 | 41484 ft | 478 kts | 355° |
| 2026-04-26 16:46 | 69.25798 | -68.64936 | 41487 ft | 478 kts | 355° |
| 2026-04-26 16:46 | 69.32409 | -68.65092 | 41478 ft | 479 kts | 356° |
| 2026-04-26 16:47 | 69.39073 | -68.65243 | 41478 ft | 479 kts | 356° |
| 2026-04-26 16:47 | 69.45746 | -68.65394 | 41472 ft | 479 kts | 356° |
| 2026-04-26 16:48 | 69.52401 | -68.65551 | 41471 ft | 479 kts | 356° |
| 2026-04-26 16:48 | 69.59026 | -68.65709 | 41510 ft | 479 kts | 356° |
| 2026-04-26 16:49 | 69.65696 | -68.65867 | 41464 ft | 480 kts | 356° |
| 2026-04-26 16:49 | 69.72374 | -68.66025 | 41465 ft | 480 kts | 356° |
| 2026-04-26 16:50 | 69.79048 | -68.66189 | 41464 ft | 480 kts | 356° |
| 2026-04-26 16:50 | 69.85677 | -68.66352 | 41458 ft | 480 kts | 356° |
| 2026-04-26 16:51 | 69.92363 | -68.66514 | 41458 ft | 481 kts | 356° |
| 2026-04-26 16:51 | 69.99055 | -68.66677 | 41458 ft | 481 kts | 356° |
| 2026-04-26 16:52 | 70.04614 | -68.66813 | 41454 ft | 481 kts | 356° |
| 2026-04-26 16:52 | 70.12398 | -68.67007 | 41454 ft | 481 kts | 356° |
| 2026-04-26 16:53 | 70.19088 | -68.67175 | 41454 ft | 481 kts | 356° |
| 2026-04-26 16:53 | 70.25780 | -68.67346 | 41454 ft | 481 kts | 356° |
| 2026-04-26 16:54 | 70.32432 | -68.67514 | 41449 ft | 481 kts | 356° |
| 2026-04-26 16:54 | 70.39135 | -68.67684 | 41432 ft | 482 kts | 356° |
| 2026-04-26 16:55 | 70.45837 | -68.67855 | 41435 ft | 482 kts | 356° |
| 2026-04-26 16:55 | 70.52546 | -68.68028 | 41430 ft | 482 kts | 356° |
| 2026-04-26 16:56 | 70.62567 | -68.68288 | 41434 ft | 482 kts | 356° |
| 2026-04-26 16:57 | 70.69283 | -68.68466 | 41458 ft | 483 kts | 357° |
| 2026-04-26 16:57 | 70.79370 | -68.68735 | 41414 ft | 483 kts | 357° |
| 2026-04-26 16:58 | 70.84959 | -68.68882 | 41435 ft | 483 kts | 357° |
| 2026-04-26 16:59 | 70.96131 | -68.69182 | 41427 ft | 483 kts | 357° |
| 2026-04-26 17:00 | 71.09584 | -68.69551 | 41428 ft | 484 kts | 357° |
| 2026-04-26 17:00 | 71.19652 | -68.69827 | 41417 ft | 485 kts | 357° |
| 2026-04-26 17:01 | 71.26401 | -68.70015 | 41414 ft | 485 kts | 357° |
| 2026-04-26 17:01 | 71.33145 | -68.70204 | 41414 ft | 485 kts | 357° |
| 2026-04-26 17:02 | 71.39848 | -68.70393 | 41411 ft | 485 kts | 357° |
| 2026-04-26 17:02 | 71.46593 | -68.70586 | 41416 ft | 486 kts | 358° |
| 2026-04-26 17:03 | 71.53359 | -68.70779 | 41393 ft | 486 kts | 358° |
| 2026-04-26 17:03 | 71.60118 | -68.70973 | 41396 ft | 486 kts | 358° |
| 2026-04-26 17:04 | 71.66838 | -68.71168 | 41384 ft | 486 kts | 358° |
| 2026-04-26 17:04 | 71.73600 | -68.71366 | 41382 ft | 486 kts | 358° |
| 2026-04-26 17:05 | 71.80361 | -68.71566 | 41392 ft | 486 kts | 358° |
| 2026-04-26 17:05 | 71.87116 | -68.71767 | 41379 ft | 486 kts | 358° |
| 2026-04-26 17:06 | 71.93829 | -68.71966 | 41363 ft | 486 kts | 358° |
| 2026-04-26 17:06 | 72.00587 | -68.72169 | 41367 ft | 486 kts | 358° |
| 2026-04-26 17:07 | 72.07345 | -68.72374 | 41360 ft | 486 kts | 358° |
| 2026-04-26 17:07 | 72.14099 | -68.72581 | 41358 ft | 486 kts | 358° |
| 2026-04-26 17:08 | 72.20812 | -68.72787 | 41361 ft | 486 kts | 358° |
| 2026-04-26 17:08 | 72.27569 | -68.72998 | 41348 ft | 486 kts | 358° |
| 2026-04-26 17:09 | 72.33188 | -68.73174 | 41345 ft | 485 kts | 358° |
| 2026-04-26 17:09 | 72.41083 | -68.73421 | 41334 ft | 486 kts | 358° |
| 2026-04-26 17:10 | 72.47795 | -68.73633 | 41341 ft | 486 kts | 358° |
| 2026-04-26 17:10 | 72.54546 | -68.73848 | 41334 ft | 486 kts | 358° |
| 2026-04-26 17:11 | 72.61310 | -68.74065 | 41325 ft | 485 kts | 358° |
| 2026-04-26 17:11 | 72.68058 | -68.74284 | 41309 ft | 485 kts | 358° |
| 2026-04-26 17:12 | 72.78143 | -68.74617 | 41305 ft | 486 kts | 358° |
| 2026-04-26 17:13 | 72.88290 | -68.74951 | 41295 ft | 486 kts | 358° |
| 2026-04-26 17:14 | 72.98426 | -68.75290 | 41287 ft | 486 kts | 358° |
| 2026-04-26 17:14 | 73.08513 | -68.75635 | 41287 ft | 485 kts | 358° |
| 2026-04-26 17:15 | 73.18649 | -68.75979 | 41268 ft | 486 kts | 358° |
| 2026-04-26 17:16 | 73.25410 | -68.76210 | 41276 ft | 486 kts | 358° |
| 2026-04-26 17:16 | 73.32120 | -68.76444 | 41266 ft | 485 kts | 359° |
| 2026-04-26 17:17 | 73.38877 | -68.76678 | 41258 ft | 486 kts | 359° |
| 2026-04-26 17:17 | 73.45632 | -68.76917 | 41245 ft | 486 kts | 359° |
| 2026-04-26 17:18 | 73.52402 | -68.77157 | 41247 ft | 486 kts | 359° |
| 2026-04-26 17:18 | 73.59115 | -68.77402 | 41213 ft | 486 kts | 359° |
| 2026-04-26 17:19 | 73.69245 | -68.77774 | 41240 ft | 485 kts | 358° |
| 2026-04-26 17:19 | 73.75993 | -68.78024 | 41223 ft | 485 kts | 359° |
| 2026-04-26 17:20 | 73.81603 | -68.78229 | 41224 ft | 485 kts | 359° |
| 2026-04-26 17:20 | 73.89456 | -68.78518 | 41222 ft | 486 kts | 359° |
| 2026-04-26 17:21 | 73.96213 | -68.78776 | 41222 ft | 486 kts | 359° |
| 2026-04-26 17:21 | 74.02973 | -68.79037 | 41241 ft | 485 kts | 359° |
| 2026-04-26 17:22 | 74.09741 | -68.79301 | 41215 ft | 486 kts | 359° |
| 2026-04-26 17:22 | 74.16471 | -68.79555 | 41216 ft | 486 kts | 359° |
| 2026-04-26 17:23 | 74.23257 | -68.79813 | 41198 ft | 486 kts | 359° |
| 2026-04-26 17:23 | 74.30043 | -68.80078 | 41196 ft | 486 kts | 359° |
| 2026-04-26 17:24 | 74.36772 | -68.80344 | 41195 ft | 485 kts | 359° |
| 2026-04-26 17:24 | 74.40126 | -68.80477 | 41021 ft | 479 kts | 359° |
| 2026-04-26 17:24 | 74.43439 | -68.80609 | 40807 ft | 474 kts | 359° |
| 2026-04-26 17:25 | 74.46721 | -68.80743 | 40499 ft | 469 kts | 359° |
| 2026-04-26 17:25 | 74.49990 | -68.80876 | 39747 ft | 471 kts | 359° |
| 2026-04-26 17:25 | 74.53286 | -68.81010 | 38975 ft | 475 kts | 359° |
| 2026-04-26 17:25 | 74.56598 | -68.81145 | 38074 ft | 476 kts | 359° |
| 2026-04-26 17:26 | 74.59869 | -68.81277 | 37279 ft | 476 kts | 359° |
| 2026-04-26 17:26 | 74.63181 | -68.81413 | 36534 ft | 474 kts | 359° |
| 2026-04-26 17:26 | 74.66478 | -68.81549 | 35795 ft | 472 kts | 359° |
| 2026-04-26 17:26 | 74.69765 | -68.81685 | 35049 ft | 471 kts | 359° |
| 2026-04-26 17:27 | 74.73039 | -68.81821 | 34268 ft | 471 kts | 359° |
| 2026-04-26 17:27 | 74.76317 | -68.81956 | 33329 ft | 470 kts | 359° |
| 2026-04-26 17:27 | 74.79584 | -68.82092 | 32408 ft | 468 kts | 359° |
| 2026-04-26 17:27 | 74.82792 | -68.82226 | 31514 ft | 466 kts | 359° |
| 2026-04-26 17:28 | 74.86030 | -68.82362 | 30599 ft | 464 kts | 359° |
| 2026-04-26 17:28 | 74.89254 | -68.82499 | 29581 ft | 461 kts | 359° |
| 2026-04-26 17:28 | 74.92439 | -68.82634 | 28845 ft | 453 kts | 359° |
| 2026-04-26 17:28 | 74.95571 | -68.82767 | 28142 ft | 445 kts | 359° |
| 2026-04-26 17:29 | 74.98649 | -68.82899 | 27468 ft | 438 kts | 359° |
| 2026-04-26 17:29 | 75.00663 | -68.82985 | 27045 ft | 434 kts | 359° |
| 2026-04-26 17:29 | 75.04669 | -68.83158 | 26180 ft | 425 kts | 359° |
| 2026-04-26 17:29 | 75.07604 | -68.83286 | 25542 ft | 419 kts | 359° |
| 2026-04-26 17:30 | 75.10510 | -68.83413 | 24914 ft | 414 kts | 359° |
| 2026-04-26 17:30 | 75.13366 | -68.83538 | 24300 ft | 408 kts | 359° |
| 2026-04-26 17:30 | 75.16158 | -68.83661 | 23687 ft | 403 kts | 359° |
| 2026-04-26 17:30 | 75.18980 | -68.83786 | 23019 ft | 396 kts | 359° |
| 2026-04-26 17:31 | 75.21670 | -68.83905 | 22425 ft | 389 kts | 359° |
| 2026-04-26 17:31 | 75.24366 | -68.84025 | 21834 ft | 382 kts | 359° |
| 2026-04-26 17:31 | 75.27000 | -68.84142 | 21255 ft | 375 kts | 359° |
| 2026-04-26 17:31 | 75.29592 | -68.84258 | 20689 ft | 369 kts | 359° |
| 2026-04-26 17:32 | 75.32111 | -68.84372 | 20141 ft | 363 kts | 359° |
| 2026-04-26 17:32 | 75.34623 | -68.84485 | 19591 ft | 359 kts | 359° |
| 2026-04-26 17:32 | 75.37116 | -68.84598 | 19044 ft | 357 kts | 359° |
| 2026-04-26 17:32 | 75.39597 | -68.84710 | 18492 ft | 355 kts | 359° |
| 2026-04-26 17:33 | 75.42063 | -68.84822 | 17894 ft | 353 kts | 359° |
| 2026-04-26 17:33 | 75.44509 | -68.84934 | 17327 ft | 350 kts | 359° |
| 2026-04-26 17:33 | 75.46940 | -68.85044 | 16788 ft | 348 kts | 359° |
| 2026-04-26 17:34 | 75.51744 | -68.85259 | 15689 ft | 340 kts | 359° |
| 2026-04-26 17:34 | 75.54075 | -68.85365 | 15171 ft | 337 kts | 359° |
| 2026-04-26 17:34 | 75.56417 | -68.85475 | 14623 ft | 336 kts | 359° |
| 2026-04-26 17:34 | 75.58748 | -68.85588 | 14087 ft | 335 kts | 359° |
| 2026-04-26 17:35 | 75.61074 | -68.85700 | 13499 ft | 334 kts | 359° |
| 2026-04-26 17:35 | 75.63387 | -68.85809 | 12947 ft | 331 kts | 359° |
| 2026-04-26 17:35 | 75.65687 | -68.85917 | 12410 ft | 329 kts | 359° |
| 2026-04-26 17:35 | 75.67965 | -68.86024 | 11873 ft | 326 kts | 359° |
| 2026-04-26 17:36 | 75.70212 | -68.86130 | 11562 ft | 315 kts | 359° |
| 2026-04-26 17:36 | 75.72350 | -68.86232 | 11442 ft | 298 kts | 360° |
| 2026-04-26 17:36 | 75.74350 | -68.86328 | 11321 ft | 282 kts | 360° |
| 2026-04-26 17:36 | 75.76258 | -68.86419 | 11201 ft | 268 kts | 360° |
| 2026-04-26 17:37 | 75.78078 | -68.86507 | 11087 ft | 254 kts | 360° |
| 2026-04-26 17:37 | 75.79810 | -68.86590 | 10972 ft | 242 kts | 360° |
| 2026-04-26 17:37 | 75.81448 | -68.86669 | 10839 ft | 236 kts | 360° |
| 2026-04-26 17:38 | 75.84743 | -68.86824 | 10592 ft | 236 kts | 360° |
| 2026-04-26 17:38 | 75.86387 | -68.86902 | 10448 ft | 236 kts | 360° |
| 2026-04-26 17:38 | 75.88024 | -68.86981 | 10222 ft | 235 kts | 360° |
| 2026-04-26 17:38 | 75.89663 | -68.87061 | 9988 ft | 238 kts | 360° |
| 2026-04-26 17:39 | 75.91384 | -68.87142 | 9865 ft | 252 kts | 360° |
| 2026-04-26 17:39 | 75.93115 | -68.87225 | 9699 ft | 250 kts | 360° |
| 2026-04-26 17:39 | 75.94856 | -68.87309 | 9223 ft | 250 kts | 360° |
| 2026-04-26 17:39 | 75.96597 | -68.87395 | 8913 ft | 251 kts | 0° |
| 2026-04-26 17:40 | 75.98358 | -68.87481 | 8639 ft | 253 kts | 0° |
| 2026-04-26 17:40 | 75.99524 | -68.87538 | 8458 ft | 253 kts | 360° |
| 2026-04-26 17:40 | 76.01878 | -68.87654 | 7997 ft | 252 kts | 360° |
| 2026-04-26 17:40 | 76.03633 | -68.87742 | 7701 ft | 251 kts | 360° |
| 2026-04-26 17:41 | 76.05385 | -68.87829 | 7433 ft | 251 kts | 360° |
| 2026-04-26 17:41 | 76.07129 | -68.87916 | 7166 ft | 251 kts | 360° |
| 2026-04-26 17:41 | 76.08853 | -68.88002 | 6902 ft | 250 kts | 360° |
| 2026-04-26 17:41 | 76.10596 | -68.88089 | 6633 ft | 250 kts | 360° |
| 2026-04-26 17:42 | 76.12331 | -68.88176 | 6352 ft | 249 kts | 360° |
| 2026-04-26 17:42 | 76.14064 | -68.88265 | 6078 ft | 248 kts | 360° |
| 2026-04-26 17:42 | 76.15789 | -68.88354 | 5811 ft | 247 kts | 360° |
| 2026-04-26 17:42 | 76.17482 | -68.88441 | 5554 ft | 245 kts | 360° |
| 2026-04-26 17:43 | 76.19186 | -68.88529 | 5412 ft | 242 kts | 0° |
| 2026-04-26 17:43 | 76.20870 | -68.88845 | 5156 ft | 243 kts | 354° |
| 2026-04-26 17:43 | 76.22552 | -68.89853 | 5084 ft | 245 kts | 352° |
| 2026-04-26 17:43 | 76.24235 | -68.90996 | 5087 ft | 245 kts | 352° |
| 2026-04-26 17:44 | 76.25923 | -68.92185 | 5099 ft | 245 kts | 351° |
| 2026-04-26 17:44 | 76.27584 | -68.93372 | 5099 ft | 245 kts | 352° |
| 2026-04-26 17:44 | 76.29265 | -68.94599 | 5091 ft | 245 kts | 351° |
| 2026-04-26 17:44 | 76.30943 | -68.95858 | 4902 ft | 243 kts | 351° |
| 2026-04-26 17:45 | 76.32620 | -68.97083 | 4377 ft | 245 kts | 352° |
| 2026-04-26 17:45 | 76.34273 | -68.98297 | 4052 ft | 240 kts | 352° |
| 2026-04-26 17:45 | 76.35908 | -68.99497 | 3996 ft | 238 kts | 353° |
| 2026-04-26 17:45 | 76.37540 | -69.00701 | 3906 ft | 234 kts | 353° |
| 2026-04-26 17:46 | 76.39151 | -69.01855 | 3438 ft | 236 kts | 353° |
| 2026-04-26 17:46 | 76.40742 | -69.03051 | 3225 ft | 226 kts | 353° |
| 2026-04-26 17:46 | 76.42230 | -69.04178 | 3125 ft | 214 kts | 354° |
| 2026-04-26 17:46 | 76.43655 | -69.05242 | 2955 ft | 199 kts | 353° |
| 2026-04-26 17:47 | 76.44952 | -69.06281 | 2743 ft | 180 kts | 353° |
| 2026-04-26 17:47 | 76.45361 | -69.06596 | 2678 ft | 174 kts | 353° |
| 2026-04-26 17:47 | 76.47166 | -69.07938 | 2554 ft | 143 kts | 354° |
| 2026-04-26 17:47 | 76.48086 | -69.08624 | 2478 ft | 127 kts | 354° |
| 2026-04-26 17:48 | 76.48921 | -69.09256 | 2246 ft | 119 kts | 354° |
| 2026-04-26 17:48 | 76.49736 | -69.09681 | 1982 ft | 115 kts | 5° |
| 2026-04-26 17:48 | 76.50431 | -69.07998 | 1999 ft | 120 kts | 43° |
| 2026-04-26 17:48 | 76.51077 | -69.05475 | 1661 ft | 131 kts | 38° |
| 2026-04-26 17:49 | 76.51668 | -69.02705 | 1494 ft | 122 kts | 51° |
| 2026-04-26 17:49 | 76.52110 | -68.99583 | 1216 ft | 122 kts | 56° |
| 2026-04-26 17:49 | 76.52491 | -68.96324 | 971 ft | 124 kts | 66° |
| 2026-04-26 17:49 | 76.52649 | -68.92689 | 836 ft | 128 kts | 88° |
| 2026-04-26 17:50 | 76.52715 | -68.88771 | 773 ft | 135 kts | 81° |
| 2026-04-26 17:50 | 76.52827 | -68.84812 | 623 ft | 132 kts | 84° |
| 2026-04-26 17:50 | 76.52891 | -68.80883 | 464 ft | 133 kts | 86° |
| 2026-04-26 17:50 | 76.52977 | -68.76957 | 269 ft | 131 kts | 87° |
| 2026-04-26 17:51 | 76.53054 | -68.73162 | 213 ft | 116 kts | 85° |
| 2026-04-26 17:51 | 76.53106 | -68.70715 | 226 ft | 59 kts | 84° |
| 2026-04-26 17:51 | 76.53139 | -68.69136 | 230 ft | 38 kts | 85° |
| 2026-04-26 17:51 | 76.53222 | -68.68588 | 234 ft | 21 kts | 9° |
| 2026-04-26 17:52 | 76.53353 | -68.68548 | 238 ft | 17 kts | 330° |
| 2026-04-26 17:52 | 76.53383 | -68.69036 | 235 ft | 19 kts | 278° |
| 2026-04-26 17:52 | 76.53409 | -68.69631 | 223 ft | 7 kts | 283° |